createdAt,value
2023-04-12T00:00:55.741Z,85.64
2023-04-12T00:01:55.693Z,85.64
2023-04-12T00:02:55.648Z,85.99
2023-04-12T00:03:55.900Z,85.99
2023-04-12T00:04:55.809Z,86.40
2023-04-12T00:05:55.521Z,87.53
2023-04-12T00:06:55.476Z,87.63
2023-04-12T00:07:55.420Z,87.63
2023-04-12T00:08:55.389Z,87.77
2023-04-12T00:09:55.357Z,89.62
2023-04-12T00:10:55.319Z,89.21
2023-04-12T00:11:55.273Z,90.44
2023-04-12T00:12:55.230Z,90.23
2023-04-12T00:13:55.335Z,90.23
2023-04-12T00:14:55.160Z,90.69
2023-04-12T00:15:55.119Z,90.48
2023-04-12T00:16:55.084Z,91.09
2023-04-12T00:17:55.077Z,91.40
2023-04-12T00:18:54.997Z,91.50
2023-04-12T00:19:54.939Z,93.04
2023-04-12T00:20:54.926Z,92.63
2023-04-12T00:21:54.887Z,93.60
2023-04-12T00:22:54.829Z,93.80
2023-04-12T00:23:54.808Z,93.29
2023-04-12T00:24:54.745Z,93.08
2023-04-12T00:25:54.712Z,93.19
2023-04-12T00:26:54.663Z,92.68
2023-04-12T00:27:54.631Z,92.98
2023-04-12T00:28:54.582Z,93.85
2023-04-12T00:29:54.565Z,93.60
2023-04-12T00:30:54.512Z,94.15
2023-04-12T00:31:54.460Z,94.98
2023-04-12T00:32:54.446Z,94.36
2023-04-12T00:33:54.624Z,93.60
2023-04-12T00:34:54.319Z,94.01
2023-04-12T00:35:54.312Z,94.21
2023-04-12T00:36:54.249Z,94.01
2023-04-12T00:37:54.192Z,93.23
2023-04-12T00:38:54.150Z,94.32
2023-04-12T00:39:54.110Z,93.29
2023-04-12T00:40:54.102Z,93.29
2023-04-12T00:41:54.026Z,93.95
2023-04-12T00:42:53.996Z,93.60
2023-04-12T00:43:53.968Z,94.32
2023-04-12T00:44:53.920Z,93.39
2023-04-12T00:45:53.905Z,93.39
2023-04-12T00:46:53.838Z,93.60
2023-04-12T00:47:53.800Z,93.70
2023-04-12T00:48:53.761Z,93.70
2023-04-12T00:49:53.717Z,94.21
2023-04-12T00:50:53.666Z,95.69
2023-04-12T00:51:53.639Z,95.49
2023-04-12T00:52:53.596Z,95.79
2023-04-12T00:53:53.574Z,95.59
2023-04-12T00:54:53.510Z,94.56
2023-04-12T00:55:53.448Z,95.59
2023-04-12T00:56:53.410Z,95.79
2023-04-12T00:57:53.367Z,96.31
2023-04-12T00:58:53.337Z,95.69
2023-04-12T00:59:53.286Z,96.04
2023-04-12T01:00:53.329Z,97.95
2023-04-12T01:01:53.259Z,97.03
2023-04-12T01:02:53.369Z,96.62
2023-04-12T01:03:53.175Z,96.82
2023-04-12T01:04:53.089Z,97.13
2023-04-12T01:05:53.040Z,97.89
2023-04-12T01:06:52.997Z,96.62
2023-04-12T01:07:52.939Z,97.89
2023-04-12T01:08:52.925Z,97.99
2023-04-12T01:09:52.859Z,96.92
2023-04-12T01:10:52.831Z,97.89
2023-04-12T01:11:52.786Z,97.44
2023-04-12T01:12:52.733Z,97.58
2023-04-12T01:13:52.696Z,98.20
2023-04-12T01:14:52.656Z,98.30
2023-04-12T01:15:52.646Z,98.71
2023-04-12T01:16:52.565Z,97.99
2023-04-12T01:17:52.559Z,99.63
2023-04-12T01:18:52.498Z,99.12
2023-04-12T01:19:52.446Z,99.12
2023-04-12T01:20:52.406Z,99.07
2023-04-12T01:21:52.371Z,99.43
2023-04-12T01:22:52.314Z,99.02
2023-04-12T01:23:52.278Z,99.43
2023-04-12T01:24:52.264Z,99.43
2023-04-12T01:25:52.223Z,99.89
2023-04-12T01:26:52.154Z,99.99
2023-04-12T01:27:52.129Z,99.99
2023-04-12T01:28:52.088Z,99.99
2023-04-12T01:29:52.027Z,99.89
2023-04-12T01:30:52.008Z,99.99
2023-04-12T01:31:51.964Z,99.99
2023-04-12T01:32:51.921Z,99.99
2023-04-12T01:33:51.896Z,99.99
2023-04-12T01:34:51.840Z,99.99
2023-04-12T01:35:51.807Z,99.99
2023-04-12T01:36:51.741Z,99.99
2023-04-12T01:37:51.735Z,99.99
2023-04-12T01:38:51.690Z,99.99
2023-04-12T01:39:51.613Z,99.99
2023-04-12T01:40:51.562Z,99.99
2023-04-12T01:41:51.524Z,99.99
2023-04-12T01:42:51.490Z,99.99
2023-04-12T01:43:51.475Z,99.99
2023-04-12T01:44:51.440Z,99.99
2023-04-12T01:45:51.366Z,99.99
2023-04-12T01:46:51.333Z,99.99
2023-04-12T01:47:51.297Z,99.99
2023-04-12T01:48:51.242Z,99.99
2023-04-12T01:49:51.190Z,99.99
2023-04-12T01:50:51.164Z,99.99
2023-04-12T01:51:51.128Z,99.99
2023-04-12T01:52:51.075Z,99.99
2023-04-12T01:53:51.035Z,99.99
2023-04-12T01:54:50.990Z,99.99
2023-04-12T01:55:50.972Z,99.99
2023-04-12T01:56:50.914Z,99.99
2023-04-12T01:57:50.893Z,99.99
2023-04-12T01:58:50.815Z,99.99
2023-04-12T01:59:50.772Z,99.99
2023-04-12T02:00:50.768Z,99.99
2023-04-12T02:01:50.763Z,99.99
2023-04-12T02:02:50.717Z,99.99
2023-04-12T02:03:50.867Z,99.99
2023-04-12T02:04:50.557Z,99.99
2023-04-12T02:05:50.531Z,99.99
2023-04-12T02:06:50.491Z,99.99
2023-04-12T02:07:50.438Z,99.99
2023-04-12T02:08:50.393Z,99.99
2023-04-12T02:09:50.354Z,99.99
2023-04-12T02:10:58.683Z,99.99
2023-04-12T02:11:51.342Z,99.99
2023-04-12T02:12:50.275Z,99.99
2023-04-12T02:13:50.191Z,99.99
2023-04-12T02:14:50.144Z,99.99
2023-04-12T02:15:50.158Z,99.99
2023-04-12T02:16:50.093Z,99.99
2023-04-12T02:17:50.422Z,99.99
2023-04-12T02:18:49.991Z,99.99
2023-04-12T02:19:51.323Z,99.99
2023-04-12T02:20:49.912Z,99.99
2023-04-12T02:21:50.724Z,99.99
2023-04-12T02:22:50.563Z,99.99
2023-04-12T02:23:50.848Z,99.99
2023-04-12T02:24:50.548Z,99.99
2023-04-12T02:25:51.276Z,99.99
2023-04-12T02:26:50.784Z,99.99
2023-04-12T02:27:50.554Z,99.99
2023-04-12T02:28:50.665Z,99.99
2023-04-12T02:29:49.510Z,99.99
2023-04-12T02:30:50.437Z,99.99
2023-04-12T02:31:50.272Z,99.99
2023-04-12T02:32:50.285Z,99.99
2023-04-12T02:33:50.208Z,99.99
2023-04-12T02:34:50.222Z,99.99
2023-04-12T02:35:50.213Z,99.99
2023-04-12T02:36:49.972Z,99.99
2023-04-12T02:37:50.355Z,99.99
2023-04-12T02:38:49.947Z,99.99
2023-04-12T02:39:49.097Z,99.99
2023-04-12T02:40:50.472Z,99.99
2023-04-12T02:41:50.026Z,99.99
2023-04-12T02:42:49.815Z,99.99
2023-04-12T02:43:50.316Z,99.99
2023-04-12T02:44:50.124Z,99.99
2023-04-12T02:45:49.721Z,99.99
2023-04-12T02:46:49.732Z,99.99
2023-04-12T02:47:49.722Z,99.99
2023-04-12T02:48:48.703Z,99.99
2023-04-12T02:49:49.672Z,99.99
2023-04-12T02:50:49.760Z,99.99
2023-04-12T02:51:49.744Z,99.99
2023-04-12T02:52:49.875Z,99.99
2023-04-12T02:53:50.123Z,99.99
2023-04-12T02:54:48.450Z,99.99
2023-04-12T02:55:49.365Z,99.99
2023-04-12T02:56:50.403Z,99.99
2023-04-12T02:57:49.715Z,99.99
2023-04-12T02:58:49.665Z,99.99
2023-04-12T02:59:49.018Z,99.99
2023-04-12T03:00:49.228Z,99.99
2023-04-12T03:01:49.183Z,99.99
2023-04-12T03:02:49.155Z,99.99
2023-04-12T03:03:50.146Z,99.99
2023-04-12T03:04:49.568Z,99.99
2023-04-12T03:05:48.953Z,99.99
2023-04-12T03:06:47.948Z,99.99
2023-04-12T03:07:49.257Z,99.99
2023-04-12T03:08:48.881Z,99.99
2023-04-12T03:09:48.660Z,99.99
2023-04-12T03:10:49.093Z,99.99
2023-04-12T03:11:48.751Z,99.99
2023-04-12T03:12:47.722Z,99.99
2023-04-12T03:13:48.814Z,99.99
2023-04-12T03:14:48.814Z,99.99
2023-04-12T03:15:48.430Z,99.99
2023-04-12T03:16:48.376Z,99.99
2023-04-12T03:17:48.518Z,99.99
2023-04-12T03:18:48.522Z,99.99
2023-04-12T03:19:48.259Z,99.99
2023-04-12T03:20:48.374Z,99.99
2023-04-12T03:21:48.204Z,99.99
2023-04-12T03:22:48.175Z,99.99
2023-04-12T03:23:48.157Z,99.99
2023-04-12T03:24:48.102Z,99.99
2023-04-12T03:25:47.145Z,99.99
2023-04-12T03:26:47.112Z,99.99
2023-04-12T03:27:47.053Z,99.99
2023-04-12T03:28:47.022Z,99.99
2023-04-12T03:29:46.970Z,99.99
2023-04-12T03:30:46.942Z,99.99
2023-04-12T03:31:46.886Z,99.99
2023-04-12T03:32:46.876Z,99.99
2023-04-12T03:33:46.811Z,99.99
2023-04-12T03:34:46.753Z,99.99
2023-04-12T03:35:46.751Z,99.99
2023-04-12T03:36:46.683Z,99.99
2023-04-12T03:37:46.664Z,99.99
2023-04-12T03:38:46.591Z,99.99
2023-04-12T03:39:46.554Z,99.99
2023-04-12T03:40:46.498Z,99.99
2023-04-12T03:41:46.458Z,99.99
2023-04-12T03:42:46.438Z,99.99
2023-04-12T03:43:46.375Z,99.99
2023-04-12T03:44:46.329Z,99.99
2023-04-12T03:45:46.309Z,99.99
2023-04-12T03:46:46.272Z,99.99
2023-04-12T03:47:46.269Z,99.99
2023-04-12T03:48:46.158Z,99.99
2023-04-12T03:49:54.146Z,99.99
2023-04-12T03:50:46.090Z,99.99
2023-04-12T03:51:46.071Z,99.99
2023-04-12T03:52:46.004Z,99.99
2023-04-12T03:53:45.948Z,99.99
2023-04-12T03:54:45.936Z,99.99
2023-04-12T03:55:45.891Z,99.99
2023-04-12T03:56:46.404Z,99.99
2023-04-12T03:57:45.785Z,99.99
2023-04-12T03:58:45.760Z,99.99
2023-04-12T03:59:45.708Z,99.99
2023-04-12T04:00:45.651Z,99.99
2023-04-12T04:01:45.659Z,99.99
2023-04-12T04:02:45.627Z,99.99
2023-04-12T04:03:46.570Z,99.99
2023-04-12T04:04:45.524Z,99.99
2023-04-12T04:05:45.454Z,99.99
2023-04-12T04:06:45.405Z,99.99
2023-04-12T04:07:45.361Z,99.99
2023-04-12T04:08:45.328Z,99.99
2023-04-12T04:09:45.292Z,99.99
2023-04-12T04:10:45.250Z,99.99
2023-04-12T04:11:45.194Z,99.99
2023-04-12T04:12:45.148Z,99.99
2023-04-12T04:13:45.104Z,99.99
2023-04-12T04:14:45.982Z,99.99
2023-04-12T04:15:45.972Z,99.99
2023-04-12T04:16:45.046Z,99.99
2023-04-12T04:17:45.010Z,99.99
2023-04-12T04:18:44.896Z,99.99
2023-04-12T04:19:44.855Z,99.99
2023-04-12T04:20:44.812Z,99.99
2023-04-12T04:21:44.773Z,99.99
2023-04-12T04:22:44.745Z,99.99
2023-04-12T04:23:44.709Z,99.99
2023-04-12T04:24:44.652Z,99.99
2023-04-12T04:25:44.600Z,99.99
2023-04-12T04:26:44.565Z,99.99
2023-04-12T04:27:44.524Z,99.99
2023-04-12T04:28:44.487Z,99.99
2023-04-12T04:29:44.452Z,99.99
2023-04-12T04:30:44.402Z,99.99
2023-04-12T04:31:44.411Z,99.99
2023-04-12T04:32:44.379Z,99.99
2023-04-12T04:33:44.264Z,99.99
2023-04-12T04:34:44.224Z,99.99
2023-04-12T04:35:44.212Z,99.99
2023-04-12T04:36:44.152Z,99.99
2023-04-12T04:37:44.106Z,99.99
2023-04-12T04:38:44.052Z,99.99
2023-04-12T04:39:44.044Z,99.99
2023-04-12T04:40:44.007Z,99.99
2023-04-12T04:41:43.938Z,99.99
2023-04-12T04:42:43.896Z,99.99
2023-04-12T04:43:43.847Z,99.99
2023-04-12T04:44:43.804Z,99.99
2023-04-12T04:45:43.794Z,99.99
2023-04-12T04:46:43.728Z,99.99
2023-04-12T04:47:43.741Z,99.99
2023-04-12T04:48:43.644Z,99.99
2023-04-12T04:49:43.603Z,99.99
2023-04-12T04:50:43.553Z,99.99
2023-04-12T04:51:43.531Z,99.99
2023-04-12T04:52:43.466Z,99.99
2023-04-12T04:53:43.435Z,99.99
2023-04-12T04:54:43.397Z,99.99
2023-04-12T04:55:43.356Z,99.99
2023-04-12T04:56:44.538Z,99.99
2023-04-12T04:57:43.266Z,99.99
2023-04-12T04:58:44.332Z,99.99
2023-04-12T04:59:44.172Z,99.99
2023-04-12T05:00:43.143Z,99.99
2023-04-12T05:01:44.153Z,99.99
2023-04-12T05:02:44.272Z,99.99
2023-04-12T05:03:44.032Z,99.99
2023-04-12T05:04:44.006Z,99.99
2023-04-12T05:05:43.824Z,99.99
2023-04-12T05:06:43.976Z,99.99
2023-04-12T05:07:43.826Z,99.99
2023-04-12T05:08:43.671Z,99.99
2023-04-12T05:09:43.740Z,99.99
2023-04-12T05:10:43.742Z,99.99
2023-04-12T05:11:43.595Z,99.99
2023-04-12T05:12:43.690Z,99.99
2023-04-12T05:13:43.584Z,99.99
2023-04-12T05:14:48.009Z,99.99
2023-04-12T05:15:43.309Z,99.99
2023-04-12T05:16:42.460Z,99.99
2023-04-12T05:17:42.415Z,99.99
2023-04-12T05:18:42.374Z,99.99
2023-04-12T05:19:42.340Z,99.99
2023-04-12T05:20:42.288Z,99.99
2023-04-12T05:21:42.250Z,99.99
2023-04-12T05:22:42.199Z,99.99
2023-04-12T05:23:42.176Z,99.99
2023-04-12T05:24:42.106Z,99.99
2023-04-12T05:25:42.088Z,99.99
2023-04-12T05:26:42.020Z,99.99
2023-04-12T05:27:41.988Z,99.99
2023-04-12T05:28:41.939Z,99.99
2023-04-12T05:29:41.900Z,99.99
2023-04-12T05:30:41.961Z,99.99
2023-04-12T05:31:41.819Z,99.99
2023-04-12T05:32:41.819Z,99.99
2023-04-12T05:33:41.733Z,99.99
2023-04-12T05:34:41.695Z,99.99
2023-04-12T05:35:43.526Z,99.99
2023-04-12T05:36:43.246Z,99.99
2023-04-12T05:37:42.413Z,99.99
2023-04-12T05:38:42.290Z,99.99
2023-04-12T05:39:42.380Z,99.99
2023-04-12T05:40:42.480Z,99.99
2023-04-12T05:41:42.294Z,99.99
2023-04-12T05:42:42.294Z,99.99
2023-04-12T05:43:41.359Z,99.99
2023-04-12T05:44:42.399Z,99.99
2023-04-12T05:45:42.126Z,99.99
2023-04-12T05:46:42.225Z,99.99
2023-04-12T05:47:42.221Z,99.99
2023-04-12T05:48:42.230Z,99.99
2023-04-12T05:49:42.527Z,99.99
2023-04-12T05:50:41.013Z,99.99
2023-04-12T05:51:41.805Z,99.99
2023-04-12T05:52:40.942Z,99.99
2023-04-12T05:53:40.881Z,99.99
2023-04-12T05:54:40.845Z,99.99
2023-04-12T05:55:48.610Z,99.99
2023-04-12T05:56:40.774Z,99.99
2023-04-12T05:57:51.352Z,99.99
2023-04-12T05:58:44.594Z,99.99
2023-04-12T05:59:40.678Z,99.99
2023-04-12T06:00:41.822Z,99.99
2023-04-12T06:01:46.134Z,99.99
2023-04-12T06:02:48.687Z,99.99
2023-04-12T06:03:43.515Z,99.99
2023-04-12T06:09:17.822Z,99.99
2023-04-12T06:17:23.044Z,99.99
2023-04-12T06:18:27.444Z,99.99
2023-04-12T06:19:22.657Z,99.99
2023-04-12T06:21:32.251Z,99.99
2023-04-12T06:22:23.644Z,99.99
2023-04-12T06:25:55.956Z,99.99
2023-04-12T06:26:57.958Z,99.99
2023-04-12T06:27:57.091Z,99.99
2023-04-12T06:28:54.502Z,99.99
2023-04-12T06:29:55.164Z,99.99
2023-04-12T06:30:55.263Z,99.99
2023-04-12T06:31:58.953Z,99.99
2023-04-12T06:32:55.097Z,99.99
2023-04-12T06:33:54.957Z,99.99
2023-04-12T06:34:54.957Z,99.99
2023-04-12T06:35:55.610Z,99.99
2023-04-12T06:37:07.365Z,99.99
2023-04-12T06:37:55.457Z,99.99
2023-04-12T06:38:55.475Z,99.99
2023-04-12T06:39:53.775Z,99.99
2023-04-12T06:40:53.770Z,99.99
2023-04-12T06:41:53.719Z,99.99
2023-04-12T06:42:56.451Z,99.99
2023-04-12T06:44:03.951Z,99.99
2023-04-12T06:44:55.221Z,99.99
2023-04-12T06:45:56.695Z,99.99
2023-04-12T06:46:55.220Z,99.99
2023-04-12T06:47:53.521Z,99.99
2023-04-12T06:48:55.021Z,99.99
2023-04-12T06:56:55.934Z,99.99
2023-04-12T06:57:34.104Z,99.99
2023-04-12T06:58:33.784Z,99.99
2023-04-12T06:59:33.216Z,99.99
2023-04-12T07:00:33.016Z,99.99
2023-04-12T07:01:33.028Z,99.99
2023-04-12T07:02:32.732Z,99.99
2023-04-12T07:03:34.856Z,99.99
2023-04-12T07:04:32.892Z,99.99
2023-04-12T07:05:32.981Z,99.99
2023-04-12T07:06:32.990Z,99.99
2023-04-12T07:07:32.666Z,99.99
2023-04-12T07:08:32.669Z,99.99
2023-04-12T07:09:32.823Z,99.99
2023-04-12T07:10:32.830Z,99.99
2023-04-12T07:11:32.803Z,99.99
2023-04-12T07:12:35.648Z,99.99
2023-04-12T07:13:32.648Z,99.99
2023-04-12T07:14:32.521Z,99.99
2023-04-12T07:15:32.426Z,99.99
2023-04-12T07:16:32.677Z,99.99
2023-04-12T07:17:32.602Z,99.99
2023-04-12T07:18:32.274Z,99.99
2023-04-12T07:19:32.321Z,99.99
2023-04-12T07:20:32.239Z,99.99
2023-04-12T07:21:32.270Z,99.99
2023-04-12T07:22:32.245Z,99.99
2023-04-12T07:23:32.426Z,99.99
2023-04-12T07:24:32.855Z,99.99
2023-04-12T07:25:32.173Z,99.99
2023-04-12T07:26:32.038Z,99.99
2023-04-12T07:27:32.078Z,99.99
2023-04-12T07:28:31.965Z,99.99
2023-04-12T07:29:31.981Z,99.99
2023-04-12T07:30:31.724Z,99.99
2023-04-12T07:31:32.027Z,99.99
2023-04-12T07:32:31.879Z,99.99
2023-04-12T07:33:31.928Z,99.99
2023-04-12T07:34:31.805Z,99.99
2023-04-12T07:35:32.498Z,99.99
2023-04-12T07:36:31.578Z,99.99
2023-04-12T07:37:31.816Z,99.99
2023-04-12T07:38:30.733Z,99.99
2023-04-12T07:39:31.399Z,99.99
2023-04-12T07:40:31.528Z,99.99
2023-04-12T07:41:30.529Z,99.99
2023-04-12T07:42:30.460Z,99.99
2023-04-12T07:43:30.457Z,99.99
2023-04-12T07:44:30.373Z,99.99
2023-04-12T07:45:30.343Z,99.99
2023-04-12T07:46:30.342Z,99.99
2023-04-12T07:47:30.301Z,99.99
2023-04-12T07:48:30.206Z,99.99
2023-04-12T07:49:30.186Z,99.99
2023-04-12T07:50:33.061Z,99.99
2023-04-12T07:51:56.337Z,99.99
2023-04-12T07:52:30.100Z,99.99
2023-04-12T07:53:37.609Z,99.99
2023-04-12T07:54:29.981Z,99.99
2023-04-12T07:55:32.448Z,99.99
2023-04-12T07:56:30.619Z,99.99
2023-04-12T07:57:30.356Z,99.99
2023-04-12T07:58:29.827Z,99.99
2023-04-12T07:59:29.785Z,99.99
2023-04-12T08:00:50.810Z,99.99
2023-04-12T08:01:29.667Z,99.99
2023-04-12T08:02:29.744Z,99.99
2023-04-12T08:03:29.702Z,99.99
2023-04-12T08:04:29.613Z,99.99
2023-04-12T08:05:29.514Z,99.99
2023-04-12T08:06:31.717Z,99.99
2023-04-12T08:07:29.514Z,99.99
2023-04-12T08:08:29.373Z,99.99
2023-04-12T08:09:29.331Z,99.99
2023-04-12T08:10:38.869Z,99.99
2023-04-12T08:11:29.323Z,99.99
2023-04-12T08:12:29.210Z,99.99
2023-04-12T08:13:29.211Z,99.99
2023-04-12T08:14:29.222Z,99.99
2023-04-12T08:15:29.505Z,99.99
2023-04-12T08:16:29.065Z,99.99
2023-04-12T08:17:29.132Z,99.99
2023-04-12T08:18:28.966Z,99.99
2023-04-12T08:19:28.934Z,99.99
2023-04-12T08:20:28.903Z,99.99
2023-04-12T08:21:28.863Z,99.99
2023-04-12T08:22:28.805Z,99.99
2023-04-12T08:23:28.800Z,99.99
2023-04-12T08:24:28.749Z,99.99
2023-04-12T08:25:28.680Z,99.99
2023-04-12T08:26:28.650Z,99.99
2023-04-12T08:27:28.594Z,99.99
2023-04-12T08:28:28.558Z,99.99
2023-04-12T08:29:28.526Z,99.99
2023-04-12T08:30:28.481Z,99.99
2023-04-12T08:31:28.445Z,99.99
2023-04-12T08:32:28.403Z,99.99
2023-04-12T08:33:28.340Z,99.99
2023-04-12T08:34:28.297Z,99.99
2023-04-12T08:35:28.272Z,99.99
2023-04-12T08:36:28.243Z,99.99
2023-04-12T08:37:28.182Z,99.99
2023-04-12T08:38:44.090Z,99.99
2023-04-12T08:39:28.116Z,99.99
2023-04-12T08:40:28.061Z,99.99
2023-04-12T08:41:28.020Z,99.99
2023-04-12T08:42:27.985Z,99.99
2023-04-12T08:43:27.927Z,99.99
2023-04-12T08:44:27.887Z,99.99
2023-04-12T08:45:27.843Z,99.99
2023-04-12T08:46:27.853Z,99.99
2023-04-12T08:47:27.816Z,99.99
2023-04-12T08:48:27.732Z,99.99
2023-04-12T08:49:27.678Z,99.99
2023-04-12T08:50:27.632Z,99.99
2023-04-12T08:51:27.610Z,99.99
2023-04-12T08:52:27.573Z,99.99
2023-04-12T08:53:27.522Z,99.99
2023-04-12T08:54:27.475Z,99.99
2023-04-12T08:55:27.462Z,99.99
2023-04-12T08:56:27.390Z,99.99
2023-04-12T08:57:27.355Z,99.99
2023-04-12T08:58:27.325Z,99.99
2023-04-12T08:59:27.274Z,99.99
2023-04-12T09:00:27.226Z,99.99
2023-04-12T09:01:27.223Z,99.99
2023-04-12T09:02:27.314Z,99.99
2023-04-12T09:03:27.347Z,99.99
2023-04-12T09:04:27.219Z,99.99
2023-04-12T09:05:27.125Z,99.99
2023-04-12T09:06:26.980Z,99.99
2023-04-12T09:07:26.938Z,99.99
2023-04-12T09:08:26.900Z,99.99
2023-04-12T09:09:26.865Z,99.99
2023-04-12T09:10:26.844Z,99.99
2023-04-12T09:11:26.793Z,99.99
2023-04-12T09:12:26.737Z,99.99
2023-04-12T09:13:26.720Z,99.99
2023-04-12T09:14:26.651Z,99.99
2023-04-12T09:15:26.613Z,99.99
2023-04-12T09:16:26.640Z,99.99
2023-04-12T09:17:26.600Z,99.99
2023-04-12T09:18:26.486Z,99.99
2023-04-12T09:19:26.470Z,99.99
2023-04-12T09:20:26.401Z,99.99
2023-04-12T09:21:26.361Z,99.99
2023-04-12T09:22:26.328Z,99.99
2023-04-12T09:23:26.313Z,99.99
2023-04-12T09:24:26.239Z,99.99
2023-04-12T09:25:26.233Z,99.99
2023-04-12T09:26:26.183Z,99.99
2023-04-12T09:27:26.132Z,99.99
2023-04-12T09:28:26.326Z,99.99
2023-04-12T09:29:26.053Z,99.99
2023-04-12T09:30:26.010Z,99.99
2023-04-12T09:31:25.997Z,99.99
2023-04-12T09:32:26.017Z,99.99
2023-04-12T09:33:25.888Z,99.99
2023-04-12T09:34:27.258Z,99.99
2023-04-12T09:35:25.809Z,99.99
2023-04-12T09:36:25.753Z,99.99
2023-04-12T09:37:25.737Z,99.99
2023-04-12T09:38:25.674Z,99.99
2023-04-12T09:39:25.634Z,99.99
2023-04-12T09:40:25.577Z,99.99
2023-04-12T09:41:27.249Z,99.99
2023-04-12T09:42:33.825Z,99.99
2023-04-12T09:43:25.598Z,99.99
2023-04-12T09:44:25.424Z,99.99
2023-04-12T09:45:25.537Z,99.99
2023-04-12T09:46:25.512Z,99.99
2023-04-12T09:47:25.359Z,99.99
2023-04-12T09:48:25.275Z,99.99
2023-04-12T09:49:25.253Z,99.99
2023-04-12T09:50:25.188Z,99.99
2023-04-12T09:51:25.150Z,99.99
2023-04-12T09:52:25.096Z,99.99
2023-04-12T09:53:25.052Z,99.99
2023-04-12T09:54:25.012Z,99.99
2023-04-12T09:55:24.989Z,99.99
2023-04-12T09:56:24.946Z,99.99
2023-04-12T09:57:24.917Z,99.99
2023-04-12T09:58:24.860Z,99.99
2023-04-12T09:59:25.685Z,99.99
2023-04-12T10:00:24.856Z,99.99
2023-04-12T10:01:24.766Z,99.99
2023-04-12T10:02:24.974Z,99.99
2023-04-12T10:03:24.952Z,99.99
2023-04-12T10:04:24.864Z,99.99
2023-04-12T10:05:24.831Z,99.99
2023-04-12T10:06:24.551Z,99.99
2023-04-12T10:07:24.499Z,99.99
2023-04-12T10:08:24.481Z,99.99
2023-04-12T10:09:24.430Z,99.99
2023-04-12T10:10:24.404Z,99.99
2023-04-12T10:11:24.328Z,99.99
2023-04-12T10:12:24.325Z,99.99
2023-04-12T10:13:24.331Z,99.99
2023-04-12T10:14:24.304Z,99.99
2023-04-12T10:15:24.183Z,99.99
2023-04-12T10:16:24.217Z,99.99
2023-04-12T10:17:24.158Z,99.99
2023-04-12T10:18:24.099Z,99.99
2023-04-12T10:19:24.044Z,99.99
2023-04-12T10:20:26.341Z,99.99
2023-04-12T10:21:23.946Z,99.99
2023-04-12T10:22:23.921Z,99.99
2023-04-12T10:23:23.868Z,99.99
2023-04-12T10:24:23.893Z,99.99
2023-04-12T10:25:23.858Z,99.99
2023-04-12T10:26:23.771Z,99.99
2023-04-12T10:27:23.702Z,99.99
2023-04-12T10:28:23.693Z,99.99
2023-04-12T10:29:23.632Z,99.99
2023-04-12T10:30:23.609Z,99.99
2023-04-12T10:31:23.668Z,99.99
2023-04-12T10:32:23.615Z,99.99
2023-04-12T10:33:23.522Z,99.99
2023-04-12T10:34:23.486Z,99.99
2023-04-12T10:35:23.402Z,99.99
2023-04-12T10:36:23.411Z,99.99
2023-04-12T10:37:23.317Z,99.99
2023-04-12T10:38:23.314Z,99.99
2023-04-12T10:39:23.273Z,99.99
2023-04-12T10:40:23.222Z,99.99
2023-04-12T10:41:23.193Z,99.99
2023-04-12T10:42:23.253Z,99.99
2023-04-12T10:43:23.111Z,99.99
2023-04-12T10:44:23.063Z,99.99
2023-04-12T10:45:23.022Z,99.99
2023-04-12T10:46:23.009Z,99.99
2023-04-12T10:47:23.020Z,99.99
2023-04-12T10:48:22.939Z,99.99
2023-04-12T10:49:22.904Z,99.99
2023-04-12T10:50:22.873Z,99.99
2023-04-12T10:51:22.905Z,99.99
2023-04-12T10:52:22.751Z,99.99
2023-04-12T10:53:22.708Z,99.99
2023-04-12T10:54:22.654Z,99.99
2023-04-12T10:55:22.617Z,99.99
2023-04-12T10:56:22.591Z,99.99
2023-04-12T10:57:22.560Z,99.99
2023-04-12T10:58:22.500Z,99.99
2023-04-12T10:59:25.568Z,99.99
2023-04-12T11:00:22.468Z,99.99
2023-04-12T11:01:22.457Z,99.99
2023-04-12T11:02:22.434Z,99.99
2023-04-12T11:03:22.642Z,99.99
2023-04-12T11:04:22.413Z,99.99
2023-04-12T11:05:22.249Z,99.99
2023-04-12T11:06:27.562Z,99.99
2023-04-12T11:07:22.139Z,99.99
2023-04-12T11:08:22.102Z,99.99
2023-04-12T11:09:22.109Z,99.99
2023-04-12T11:10:22.038Z,99.99
2023-04-12T11:11:21.981Z,99.99
2023-04-12T11:12:21.954Z,99.99
2023-04-12T11:13:21.897Z,99.99
2023-04-12T11:14:21.870Z,99.99
2023-04-12T11:15:21.882Z,99.99
2023-04-12T11:16:21.849Z,99.99
2023-04-12T11:17:21.860Z,99.99
2023-04-12T11:18:21.794Z,99.99
2023-04-12T11:19:21.667Z,99.99
2023-04-12T11:20:21.658Z,99.99
2023-04-12T11:21:21.596Z,99.99
2023-04-12T11:22:21.555Z,99.99
2023-04-12T11:23:21.506Z,99.99
2023-04-12T11:24:21.546Z,99.99
2023-04-12T11:25:21.490Z,99.99
2023-04-12T11:26:21.409Z,99.99
2023-04-12T11:27:21.357Z,99.99
2023-04-12T11:28:27.949Z,99.99
2023-04-12T11:29:21.286Z,99.99
2023-04-12T11:30:21.239Z,99.99
2023-04-12T11:31:21.230Z,99.99
2023-04-12T11:32:21.302Z,99.99
2023-04-12T11:33:21.134Z,99.99
2023-04-12T11:34:21.106Z,99.99
2023-04-12T11:35:21.055Z,99.99
2023-04-12T11:36:21.010Z,99.99
2023-04-12T11:37:20.967Z,99.99
2023-04-12T11:38:20.939Z,99.99
2023-04-12T11:39:20.921Z,99.99
2023-04-12T11:40:20.862Z,99.99
2023-04-12T11:41:20.825Z,99.99
2023-04-12T11:42:20.792Z,99.30
2023-04-12T11:43:20.751Z,98.08
2023-04-12T11:44:20.706Z,99.30
2023-04-12T11:45:20.679Z,99.87
2023-04-12T11:46:20.725Z,99.99
2023-04-12T11:47:20.607Z,98.24
2023-04-12T11:48:20.565Z,98.30
2023-04-12T11:49:20.534Z,97.69
2023-04-12T11:50:20.486Z,97.53
2023-04-12T11:51:20.562Z,95.86
2023-04-12T11:52:20.415Z,95.66
2023-04-12T11:53:20.361Z,94.89
2023-04-12T11:54:20.333Z,95.15
2023-04-12T11:55:20.284Z,94.29
2023-04-12T11:56:20.257Z,94.40
2023-04-12T11:57:20.230Z,94.25
2023-04-12T11:58:20.181Z,92.72
2023-04-12T11:59:20.142Z,91.51
2023-04-12T12:00:20.109Z,91.35
2023-04-12T12:01:20.074Z,92.57
2023-04-12T12:02:23.419Z,92.51
2023-04-12T12:03:20.145Z,92.26
2023-04-12T12:04:20.169Z,89.87
2023-04-12T12:05:20.253Z,90.17
2023-04-12T12:06:20.010Z,91.49
2023-04-12T12:07:20.143Z,91.90
2023-04-12T12:08:19.833Z,92.00
2023-04-12T12:09:19.779Z,89.87
2023-04-12T12:10:36.596Z,89.26
2023-04-12T12:11:19.706Z,90.37
2023-04-12T12:12:19.671Z,88.10
2023-04-12T12:13:19.634Z,88.34
2023-04-12T12:14:19.625Z,89.92
2023-04-12T12:15:19.559Z,88.75
2023-04-12T12:16:19.538Z,87.53
2023-04-12T12:17:19.551Z,87.53
2023-04-12T12:18:19.455Z,87.06
2023-04-12T12:19:19.415Z,88.13
2023-04-12T12:20:19.405Z,86.82
2023-04-12T12:21:19.352Z,87.84
2023-04-12T12:22:19.326Z,86.27
2023-04-12T12:23:19.298Z,87.38
2023-04-12T12:24:19.245Z,87.24
2023-04-12T12:25:19.197Z,86.63
2023-04-12T12:26:19.593Z,84.60
2023-04-12T12:27:19.187Z,84.70
2023-04-12T12:28:19.181Z,83.79
2023-04-12T12:29:19.054Z,84.26
2023-04-12T12:30:19.020Z,84.87
2023-04-12T12:31:19.041Z,84.42
2023-04-12T12:32:19.019Z,83.67
2023-04-12T12:33:18.909Z,83.87
2023-04-12T12:34:18.881Z,80.93
2023-04-12T12:35:18.844Z,81.34
2023-04-12T12:36:18.849Z,83.06
2023-04-12T12:37:18.780Z,83.26
2023-04-12T12:38:18.750Z,81.34
2023-04-12T12:39:18.704Z,81.74
2023-04-12T12:40:18.674Z,81.44
2023-04-12T12:41:18.636Z,81.44
2023-04-12T12:42:18.596Z,79.82
2023-04-12T12:43:18.566Z,81.38
2023-04-12T12:44:18.517Z,80.77
2023-04-12T12:45:18.485Z,81.82
2023-04-12T12:46:18.480Z,81.41
2023-04-12T12:47:18.449Z,81.11
2023-04-12T12:48:18.584Z,81.11
2023-04-12T12:49:18.352Z,81.82
2023-04-12T12:50:18.307Z,80.60
2023-04-12T12:51:18.268Z,81.31
2023-04-12T12:52:18.235Z,81.82
2023-04-12T12:53:18.199Z,80.97
2023-04-12T12:54:28.417Z,80.97
2023-04-12T12:55:18.143Z,81.21
2023-04-12T12:56:18.100Z,81.27
2023-04-12T12:57:18.069Z,80.19
2023-04-12T12:58:18.028Z,80.06
2023-04-12T12:59:17.981Z,79.04
2023-04-12T13:00:18.020Z,77.97
2023-04-12T13:01:17.939Z,78.57
2023-04-12T13:02:17.979Z,78.91
2023-04-12T13:03:18.085Z,79.49
2023-04-12T13:04:17.882Z,81.82
2023-04-12T13:05:17.826Z,80.60
2023-04-12T13:06:17.758Z,79.18
2023-04-12T13:07:17.690Z,79.79
2023-04-12T13:08:17.686Z,79.59
2023-04-12T13:09:17.648Z,80.91
2023-04-12T13:10:17.614Z,80.91
2023-04-12T13:11:18.441Z,80.91
2023-04-12T13:12:17.524Z,81.21
2023-04-12T13:13:17.474Z,80.13
2023-04-12T13:14:17.456Z,80.91